Time;durP1;ratioP1;P1;durP2;ratioP2;P2;SDS_P1;SDS_P2;PMS_P1;PMS_P2;Temp;Humidity;BMP_temperature;BMP_pressure;BME280_temperature;BME280_humidity;BME280_pressure;Samples;Min_cycle;Max_cycle;Signal;HPM_P1;HPM_P2
2021/10/17 00:02:13;;;;;;;;;;;;;;;;;;5049380;28;19933;-68
2021/10/17 00:04:40;;;;;;;;;;;;;;;;;;5047104;28;20007;-67
2021/10/17 00:07:09;;;;;;;;;;;;;;;;;;5048580;28;19931;-67
2021/10/17 00:09:36;;;;;;;;;;;;;;;;;;5049477;28;19972;-67
2021/10/17 00:12:03;;;;;;;;;;;;;;;;;;5043375;28;20325;-66
2021/10/17 00:14:30;;;;;;;;;;;;;;;;;;5051409;28;19925;-66
2021/10/17 00:16:57;;;;;;;;;;;;;;;;;;5049569;28;19925;-67
2021/10/17 00:19:24;;;;;;;;;;;;;;;;;;5048316;28;19924;-67
2021/10/17 00:21:51;;;;;;;;;;;;;;;;;;5047520;28;19939;-67
2021/10/17 00:24:18;;;;;;;;;;;;;;;;;;5050059;28;20424;-67
2021/10/17 00:26:45;;;;;;;;;;;;;;;;;;5048438;28;20019;-67
2021/10/17 00:29:12;;;;;;;;;;;;;;;;;;5050083;28;20569;-67
2021/10/17 00:31:39;;;;;;;;;;;;;;;;;;5049766;28;19931;-65
2021/10/17 00:34:06;;;;;;;;;;;;;;;;;;5050237;28;19956;-65
2021/10/17 00:36:33;;;;;;;;;;;;;;;;;;5050809;28;19929;-66
2021/10/17 00:39:00;;;;;;;;;;;;;;;;;;5052651;28;20393;-66
2021/10/17 00:41:27;;;;;;;;;;;;;;;;;;5052943;28;19924;-67
2021/10/17 00:43:54;;;;;;;;;;;;;;;;;;5050440;28;19936;-65
2021/10/17 00:46:21;;;;;;;;;;;;;;;;;;5054422;28;19932;-65
2021/10/17 00:48:48;;;;;;;;;;;;;;;;;;5050864;28;20015;-65
2021/10/17 00:51:15;;;;;;;;;;;;;;;;;;5054253;28;20374;-66
2021/10/17 00:53:42;;;;;;;;;;;;;;;;;;5048195;28;19925;-63
2021/10/17 00:56:09;;;;;;;;;;;;;;;;;;5051033;28;19935;-66
2021/10/17 00:58:36;;;;;;;;;;;;;;;;;;5051926;28;20403;-66
2021/10/17 01:01:03;;;;;;;;;;;;;;;;;;5050909;28;19928;-65
2021/10/17 01:03:30;;;;;;;;;;;;;;;;;;5054990;28;20015;-66
2021/10/17 01:05:57;;;;;;;;;;;;;;;;;;5052709;28;19931;-66
2021/10/17 01:08:24;;;;;;;;;;;;;;;;;;5050298;28;20289;-66
2021/10/17 01:10:51;;;;;;;;;;;;;;;;;;5052221;28;20009;-66
2021/10/17 01:13:18;;;;;;;;;;;;;;;;;;5054046;28;19924;-66
2021/10/17 01:15:45;;;;;;;;;;;;;;;;;;5050571;28;20304;-66
2021/10/17 01:18:12;;;;;;;;;;;;;;;;;;5052390;28;19940;-66
2021/10/17 01:20:39;;;;;;;;;;;;;;;;;;5052080;28;19929;-69
2021/10/17 01:23:06;;;;;;;;;;;;;;;;;;5049514;28;20515;-66
2021/10/17 01:25:33;;;;;;;;;;;;;;;;;;5050011;28;19935;-67
2021/10/17 01:28:00;;;;;;;;;;;;;;;;;;5056036;28;19928;-66
2021/10/17 01:30:27;;;;;;;;;;;;;;;;;;5051554;28;19932;-68
2021/10/17 01:32:54;;;;;;;;;;;;;;;;;;5052411;28;19936;-67
2021/10/17 01:35:21;;;;;;;;;;;;;;;;;;5050893;28;19932;-67
2021/10/17 01:37:48;;;;;;;;;;;;;;;;;;5053509;28;19933;-67
2021/10/17 01:40:15;;;;;;;;;;;;;;;;;;5055336;28;20470;-67
2021/10/17 01:42:42;;;;;;;;;;;;;;;;;;5049807;28;19933;-67
2021/10/17 01:45:09;;;;;;;;;;;;;;;;;;5052685;28;19928;-67
2021/10/17 01:47:36;;;;;;;;;;;;;;;;;;5051293;28;20378;-67
2021/10/17 01:50:03;;;;;;;;;;;;;;;;;;5051655;28;19932;-67
2021/10/17 01:52:31;;;;;;;;;;;;;;;;;;5048447;28;19925;-67
2021/10/17 01:54:58;;;;;;;;;;;;;;;;;;5049613;28;20004;-67
2021/10/17 01:57:25;;;;;;;;;;;;;;;;;;5053908;28;19924;-68
2021/10/17 01:59:52;;;;;;;;;;;;;;;;;;5049055;28;19951;-65
2021/10/17 02:02:19;;;;;;;;;;;;;;;;;;5047853;28;19932;-66
2021/10/17 02:04:46;;;;;;;;;;;;;;;;;;5047176;28;20412;-66
2021/10/17 02:07:13;;;;;;;;;;;;;;;;;;5046303;28;19924;-66
2021/10/17 02:09:40;;;;;;;;;;;;;;;;;;5049820;28;19967;-66
2021/10/17 02:12:07;;;;;;;;;;;;;;;;;;5046033;28;20011;-68
2021/10/17 02:14:35;;;;;;;;;;;;;;;;;;5051829;28;19933;-66
2021/10/17 02:17:03;;;;;;;;;;;;;;;;;;5049480;28;19925;-67
2021/10/17 02:19:30;;;;;;;;;;;;;;;;;;5047701;28;19966;-66
2021/10/17 02:21:57;;;;;;;;;;;;;;;;;;5047361;28;19932;-66
2021/10/17 02:24:24;;;;;;;;;;;;;;;;;;5051029;28;19933;-66
2021/10/17 02:26:51;;;;;;;;;;;;;;;;;;5055523;28;20289;-66
2021/10/17 02:29:18;;;;;;;;;;;;;;;;;;5050500;28;19936;-66
2021/10/17 02:31:45;;;;;;;;;;;;;;;;;;5052616;28;19931;-66
2021/10/17 02:34:12;;;;;;;;;;;;;;;;;;5050746;28;19925;-69
2021/10/17 02:36:39;;;;;;;;;;;;;;;;;;5050628;28;19925;-66
2021/10/17 02:39:06;;;;;;;;;;;;;;;;;;5049619;28;19933;-66
2021/10/17 02:41:33;;;;;;;;;;;;;;;;;;5050849;28;20393;-66
2021/10/17 02:44:00;;;;;;;;;;;;;;;;;;5051458;28;20297;-66
2021/10/17 02:46:27;;;;;;;;;;;;;;;;;;5052415;28;20246;-66
2021/10/17 02:48:54;;;;;;;;;;;;;;;;;;5052528;28;19925;-66
2021/10/17 02:51:21;;;;;;;;;;;;;;;;;;5052848;28;20004;-66
2021/10/17 02:53:49;;;;;;;;;;;;;;;;;;5053577;28;19931;-66
2021/10/17 02:56:16;;;;;;;;;;;;;;;;;;5054173;28;19932;-66
2021/10/17 02:58:44;;;;;;;;;;;;;;;;;;5049950;28;20010;-66
2021/10/17 03:01:11;;;;;;;;;;;;;;;;;;5051652;28;19932;-66
2021/10/17 03:03:38;;;;;;;;;;;;;;;;;;5051466;28;19932;-67
2021/10/17 03:06:05;;;;;;;;;;;;;;;;;;5047907;28;20415;-67
2021/10/17 03:08:32;;;;;;;;;;;;;;;;;;5048890;28;19925;-66
2021/10/17 03:10:59;;;;;;;;;;;;;;;;;;5048758;28;19929;-66
2021/10/17 03:13:26;;;;;;;;;;;;;;;;;;5050974;28;19931;-67
2021/10/17 03:15:56;;;;;;;;;;;;;;;;;;5048398;28;19925;-66
2021/10/17 03:18:23;;;;;;;;;;;;;;;;;;5051943;28;19924;-66
2021/10/17 03:20:50;;;;;;;;;;;;;;;;;;5048273;28;19931;-66
2021/10/17 03:23:17;;;;;;;;;;;;;;;;;;5051465;28;19931;-66
2021/10/17 03:25:44;;;;;;;;;;;;;;;;;;5046848;28;19935;-66
2021/10/17 03:28:11;;;;;;;;;;;;;;;;;;5054014;28;19924;-66
2021/10/17 03:30:38;;;;;;;;;;;;;;;;;;5046478;28;19925;-67
2021/10/17 03:33:05;;;;;;;;;;;;;;;;;;5051311;28;19931;-67
2021/10/17 03:35:32;;;;;;;;;;;;;;;;;;5054476;28;20312;-67
2021/10/17 03:37:59;;;;;;;;;;;;;;;;;;5051691;28;19948;-67
2021/10/17 03:40:26;;;;;;;;;;;;;;;;;;5049061;28;19935;-67
2021/10/17 03:42:53;;;;;;;;;;;;;;;;;;5049295;28;19925;-66
2021/10/17 03:45:20;;;;;;;;;;;;;;;;;;5051637;28;19925;-68
2021/10/17 03:47:47;;;;;;;;;;;;;;;;;;5045808;28;20308;-67
2021/10/17 03:50:14;;;;;;;;;;;;;;;;;;5048748;28;19929;-67
2021/10/17 03:52:41;;;;;;;;;;;;;;;;;;5049646;28;19924;-66
2021/10/17 03:55:08;;;;;;;;;;;;;;;;;;5048001;28;19936;-66
2021/10/17 03:57:35;;;;;;;;;;;;;;;;;;5040920;28;20373;-67
2021/10/17 04:00:02;;;;;;;;;;;;;;;;;;5045707;28;19935;-68
2021/10/17 04:02:29;;;;;;;;;;;;;;;;;;5049407;28;19931;-67
2021/10/17 04:04:56;;;;;;;;;;;;;;;;;;5047557;28;19928;-67
2021/10/17 04:07:23;;;;;;;;;;;;;;;;;;5046509;28;19925;-67
2021/10/17 04:09:50;;;;;;;;;;;;;;;;;;5043643;28;19976;-67
2021/10/17 04:12:17;;;;;;;;;;;;;;;;;;5048649;28;19925;-66
2021/10/17 04:14:44;;;;;;;;;;;;;;;;;;5054791;28;19948;-67
2021/10/17 04:17:11;;;;;;;;;;;;;;;;;;5049563;28;19925;-68
2021/10/17 04:19:38;;;;;;;;;;;;;;;;;;5050131;28;19933;-69
2021/10/17 04:22:05;;;;;;;;;;;;;;;;;;5051849;28;20385;-67
2021/10/17 04:24:31;;;;;;;;;;;;;;;;;;5052833;28;20270;-68
2021/10/17 04:26:58;;;;;;;;;;;;;;;;;;5051565;28;19924;-67
2021/10/17 04:29:25;;;;;;;;;;;;;;;;;;5051186;28;19928;-67
2021/10/17 04:31:52;;;;;;;;;;;;;;;;;;5052035;28;20088;-68
2021/10/17 04:34:19;;;;;;;;;;;;;;;;;;5051704;28;19929;-67
2021/10/17 04:36:46;;;;;;;;;;;;;;;;;;5050614;28;19925;-68
2021/10/17 04:39:13;;;;;;;;;;;;;;;;;;5050930;28;19995;-66
2021/10/17 04:41:40;;;;;;;;;;;;;;;;;;5052423;28;19939;-66
2021/10/17 04:44:07;;;;;;;;;;;;;;;;;;5050277;28;19982;-66
2021/10/17 04:46:34;;;;;;;;;;;;;;;;;;5053499;28;19924;-67
2021/10/17 04:49:01;;;;;;;;;;;;;;;;;;5053367;28;19925;-67
2021/10/17 04:51:28;;;;;;;;;;;;;;;;;;5048391;28;19925;-68
2021/10/17 04:53:55;;;;;;;;;;;;;;;;;;5050620;28;19929;-66
2021/10/17 04:56:22;;;;;;;;;;;;;;;;;;5051709;28;20306;-68
2021/10/17 04:58:49;;;;;;;;;;;;;;;;;;5052899;28;19925;-67
2021/10/17 05:01:16;;;;;;;;;;;;;;;;;;5051258;28;19929;-66
2021/10/17 05:03:43;;;;;;;;;;;;;;;;;;5053521;28;19925;-66
2021/10/17 05:06:11;;;;;;;;;;;;;;;;;;5052934;28;19931;-67
2021/10/17 05:08:38;;;;;;;;;;;;;;;;;;5051316;28;20452;-69
2021/10/17 05:11:05;;;;;;;;;;;;;;;;;;5051608;28;19925;-67
2021/10/17 05:13:32;;;;;;;;;;;;;;;;;;5049786;28;19925;-66
2021/10/17 05:15:59;;;;;;;;;;;;;;;;;;5052759;28;20315;-66
2021/10/17 05:18:26;;;;;;;;;;;;;;;;;;5053596;28;19929;-65
2021/10/17 05:20:53;;;;;;;;;;;;;;;;;;5052473;28;19933;-66
2021/10/17 05:23:21;;;;;;;;;;;;;;;;;;5050841;28;19932;-66
2021/10/17 05:25:48;;;;;;;;;;;;;;;;;;5056345;28;20024;-67
2021/10/17 05:28:15;;;;;;;;;;;;;;;;;;5050689;28;19932;-67
2021/10/17 05:30:42;;;;;;;;;;;;;;;;;;5051348;28;19929;-67
2021/10/17 05:33:09;;;;;;;;;;;;;;;;;;5053641;28;20023;-67
2021/10/17 05:35:36;;;;;;;;;;;;;;;;;;5052463;28;19929;-69
2021/10/17 05:38:03;;;;;;;;;;;;;;;;;;5053267;28;19925;-65
2021/10/17 05:40:30;;;;;;;;;;;;;;;;;;5048962;28;19976;-66
2021/10/17 05:42:57;;;;;;;;;;;;;;;;;;5052071;28;19931;-66
2021/10/17 05:45:24;;;;;;;;;;;;;;;;;;5047606;28;19935;-67
2021/10/17 05:47:51;;;;;;;;;;;;;;;;;;5053250;28;20292;-66
2021/10/17 05:50:18;;;;;;;;;;;;;;;;;;5052560;28;19925;-67
2021/10/17 05:52:45;;;;;;;;;;;;;;;;;;5052291;28;20447;-65
2021/10/17 05:55:12;;;;;;;;;;;;;;;;;;5052407;28;19933;-66
2021/10/17 05:57:39;;;;;;;;;;;;;;;;;;5051835;28;19932;-69
2021/10/17 06:00:06;;;;;;;;;;;;;;;;;;5050754;28;20221;-68
2021/10/17 06:02:33;;;;;;;;;;;;;;;;;;5047322;28;20409;-67
2021/10/17 06:05:00;;;;;;;;;;;;;;;;;;5046795;28;19940;-67
2021/10/17 06:07:27;;;;;;;;;;;;;;;;;;5051616;28;19936;-66
2021/10/17 06:09:54;;;;;;;;;;;;;;;;;;5052062;28;20393;-67
2021/10/17 06:12:21;;;;;;;;;;;;;;;;;;5051283;28;20366;-67
2021/10/17 06:14:48;;;;;;;;;;;;;;;;;;5053948;28;20293;-66
2021/10/17 06:17:15;;;;;;;;;;;;;;;;;;5051815;28;20047;-67
2021/10/17 06:19:42;;;;;;;;;;;;;;;;;;5050114;28;20319;-66
2021/10/17 06:22:09;;;;;;;;;;;;;;;;;;5050854;28;19928;-67
2021/10/17 06:24:36;;;;;;;;;;;;;;;;;;5052674;28;19999;-68
2021/10/17 06:27:02;;;;;;;;;;;;;;;;;;5048485;28;20462;-67
2021/10/17 06:29:29;;;;;;;;;;;;;;;;;;5051277;28;19928;-67
2021/10/17 06:31:56;;;;;;;;;;;;;;;;;;5052023;28;20007;-67
2021/10/17 06:34:23;;;;;;;;;;;;;;;;;;5049960;28;19962;-69
2021/10/17 06:36:50;;;;;;;;;;;;;;;;;;5051077;28;19947;-66
2021/10/17 06:39:17;;;;;;;;;;;;;;;;;;5050608;28;19929;-67
2021/10/17 06:41:44;;;;;;;;;;;;;;;;;;5052050;28;20303;-66
2021/10/17 06:44:11;;;;;;;;;;;;;;;;;;5051023;28;20011;-72
2021/10/17 06:46:38;;;;;;;;;;;;;;;;;;5052023;28;19925;-67
2021/10/17 06:49:05;;;;;;;;;;;;;;;;;;5047152;28;19925;-67
2021/10/17 06:51:32;;;;;;;;;;;;;;;;;;5050154;28;19925;-68
2021/10/17 06:53:59;;;;;;;;;;;;;;;;;;5051485;28;20460;-66
2021/10/17 06:56:26;;;;;;;;;;;;;;;;;;5051328;28;20558;-69
2021/10/17 06:58:53;;;;;;;;;;;;;;;;;;5048757;28;19925;-67
2021/10/17 07:01:20;;;;;;;;;;;;;;;;;;5045339;28;19933;-67
2021/10/17 07:03:47;;;;;;;;;;;;;;;;;;5051189;28;19925;-68
2021/10/17 07:06:14;;;;;;;;;;;;;;;;;;5049697;28;19932;-69
2021/10/17 07:08:41;;;;;;;;;;;;;;;;;;5046751;28;20578;-68
2021/10/17 07:11:08;;;;;;;;;;;;;;;;;;5045525;28;19929;-68
2021/10/17 07:13:35;;;;;;;;;;;;;;;;;;5047434;28;19932;-68
2021/10/17 07:16:02;;;;;;;;;;;;;;;;;;5050385;28;19925;-67
2021/10/17 07:18:29;;;;;;;;;;;;;;;;;;5045629;28;19925;-67
2021/10/17 07:20:56;;;;;;;;;;;;;;;;;;5048752;28;19925;-67
2021/10/17 07:23:23;;;;;;;;;;;;;;;;;;5047922;28;19929;-68
2021/10/17 07:25:50;;;;;;;;;;;;;;;;;;5050151;28;20385;-68
2021/10/17 07:28:17;;;;;;;;;;;;;;;;;;5048906;28;19935;-70
2021/10/17 07:30:44;;;;;;;;;;;;;;;;;;5046728;28;20373;-68
2021/10/17 07:33:10;;;;;;;;;;;;;;;;;;5048339;28;20417;-67
2021/10/17 07:35:37;;;;;;;;;;;;;;;;;;5052128;28;20422;-70
2021/10/17 07:38:04;;;;;;;;;;;;;;;;;;5047261;28;20036;-67
2021/10/17 07:40:31;;;;;;;;;;;;;;;;;;5050499;28;19928;-67
2021/10/17 07:42:58;;;;;;;;;;;;;;;;;;5048201;28;19932;-67
2021/10/17 07:45:25;;;;;;;;;;;;;;;;;;5046676;28;19936;-69
2021/10/17 07:47:52;;;;;;;;;;;;;;;;;;5046656;28;19947;-68
2021/10/17 07:50:19;;;;;;;;;;;;;;;;;;5045126;28;19936;-69
2021/10/17 07:52:46;;;;;;;;;;;;;;;;;;5050181;28;19955;-65
2021/10/17 07:55:13;;;;;;;;;;;;;;;;;;5048437;28;19931;-66
2021/10/17 07:57:40;;;;;;;;;;;;;;;;;;5047732;28;19924;-67
2021/10/17 08:00:07;;;;;;;;;;;;;;;;;;5043570;28;21608;-68
2021/10/17 08:02:34;;;;;;;;;;;;;;;;;;5049759;28;19947;-67
2021/10/17 08:05:01;;;;;;;;;;;;;;;;;;5046772;28;19925;-68
2021/10/17 08:07:28;;;;;;;;;;;;;;;;;;5048116;28;19956;-68
2021/10/17 08:09:55;;;;;;;;;;;;;;;;;;5046210;28;20304;-67
2021/10/17 08:12:22;;;;;;;;;;;;;;;;;;5050399;28;20424;-68
2021/10/17 08:14:49;;;;;;;;;;;;;;;;;;5048577;28;19924;-67
2021/10/17 08:17:16;;;;;;;;;;;;;;;;;;5043111;28;19928;-68
2021/10/17 08:19:43;;;;;;;;;;;;;;;;;;5045066;28;20101;-66
2021/10/17 08:22:10;;;;;;;;;;;;;;;;;;5048009;28;19931;-67
2021/10/17 08:24:37;;;;;;;;;;;;;;;;;;5047736;28;19936;-67
2021/10/17 08:27:04;;;;;;;;;;;;;;;;;;5048671;28;19925;-67
2021/10/17 08:29:30;;;;;;;;;;;;;;;;;;5047317;28;19925;-68
2021/10/17 08:31:57;;;;;;;;;;;;;;;;;;5051050;28;20418;-67
2021/10/17 08:34:24;;;;;;;;;;;;;;;;;;5044358;28;19940;-68
2021/10/17 08:36:51;;;;;;;;;;;;;;;;;;5045235;28;19929;-66
2021/10/17 08:39:18;;;;;;;;;;;;;;;;;;5046224;28;19948;-67
2021/10/17 08:41:45;;;;;;;;;;;;;;;;;;5046884;28;20312;-67
2021/10/17 08:44:12;;;;;;;;;;;;;;;;;;5041631;28;19932;-67
2021/10/17 08:46:39;;;;;;;;;;;;;;;;;;5043951;28;19924;-68
2021/10/17 08:49:06;;;;;;;;;;;;;;;;;;5047084;28;19972;-68
2021/10/17 08:51:35;;;;;;;;;;;;;;;;;;5048010;28;20311;-68
2021/10/17 08:54:02;;;;;;;;;;;;;;;;;;5044087;28;20031;-67
2021/10/17 08:56:29;;;;;;;;;;;;;;;;;;5043018;28;19925;-68
2021/10/17 08:58:56;;;;;;;;;;;;;;;;;;5050805;28;19935;-68
2021/10/17 09:01:23;;;;;;;;;;;;;;;;;;5046410;28;19931;-68
2021/10/17 09:03:50;;;;;;;;;;;;;;;;;;5050872;28;19932;-67
2021/10/17 09:06:17;;;;;;;;;;;;;;;;;;5048420;28;19931;-68
2021/10/17 09:08:44;;;;;;;;;;;;;;;;;;5047392;28;19932;-68
2021/10/17 09:11:11;;;;;;;;;;;;;;;;;;5051155;28;19932;-68
2021/10/17 09:13:38;;;;;;;;;;;;;;;;;;5046286;28;19931;-67
2021/10/17 09:16:05;;;;;;;;;;;;;;;;;;5050410;28;19932;-67
2021/10/17 09:18:35;;;;;;;;;;;;;;;;;;5049821;28;20385;-68
2021/10/17 09:21:02;;;;;;;;;;;;;;;;;;5049906;28;20423;-67
2021/10/17 09:23:29;;;;;;;;;;;;;;;;;;5052196;28;19928;-67
2021/10/17 09:25:56;;;;;;;;;;;;;;;;;;5048716;28;20167;-67
2021/10/17 09:28:23;;;;;;;;;;;;;;;;;;5049099;28;20000;-68
2021/10/17 09:30:50;;;;;;;;;;;;;;;;;;5044387;28;20012;-68
2021/10/17 09:33:19;;;;;;;;;;;;;;;;;;5042094;28;20412;-67
2021/10/17 09:35:46;;;;;;;;;;;;;;;;;;5051076;28;19955;-67
2021/10/17 09:38:19;;;;;;;;;;;34.40;42.30;;;;;;5047660;28;19932;-67
2021/10/17 09:40:47;;;;;;;;;;;34.50;42.70;;;;;;5048744;28;20339;-67
2021/10/17 09:43:15;;;;;;;;;;;;;;;;;;5058385;22;19929;-61
2021/10/17 09:45:42;;;;;;;;;;;35.40;39.30;;;;;;5024426;28;20269;-63
2021/10/17 09:48:12;;;;;;;;;;;;;;;;;;5029405;28;20300;-62
2021/10/17 09:50:39;;;;;;;;;;;;;;;;;;5022964;28;20000;-61
2021/10/17 09:53:08;;;;;;;;;;;;;;;;;;5025388;28;19945;-62
2021/10/17 09:55:35;;;;;;;;;;;;;;;;;;5011003;28;19932;-61
2021/10/17 09:58:03;;;;;;;;;;;;;;;;;;5009474;28;19936;-61
2021/10/17 10:00:30;;;;;;;;;;;;;;;;;;5009434;28;19925;-62
2021/10/17 10:02:57;;;;;;;;;;;;;;;;;;5011966;28;20324;-61
2021/10/17 10:05:27;;;;;;;;;;;;;;;;;;5009434;28;19926;-62
2021/10/17 10:07:54;;;;;;;;;;;;;;;;;;5011506;28;19925;-62
2021/10/17 10:10:21;;;;;;;;;;;;;;;;;;5008138;28;19925;-62
2021/10/17 10:12:48;;;;;;;;;;;;;;;;;;5012198;28;19948;-62
2021/10/17 10:15:15;;;;;;;;;;;;;;;;;;5012488;28;19930;-61
2021/10/17 10:17:42;;;;;;;;;;;;;;;;;;5010458;28;19925;-61
2021/10/17 10:20:10;;;;;;;;;;;;;;;;;;5007071;28;20398;-61
2021/10/17 10:22:37;;;;;;;;;;;;;;;;;;5002292;28;19925;-60
2021/10/17 10:25:04;;;;;;;;;;;;;;;;;;5001419;28;19947;-60
2021/10/17 10:27:31;;;;;;;;;;;;;;;;;;5006363;28;19926;-59
2021/10/17 10:29:58;;;;;;;;;;;;;;;;;;5003684;28;19949;-60
2021/10/17 10:32:25;;;;;;;;;;;;;;;;;;5009098;28;19926;-61
2021/10/17 10:34:52;;;;;;;;;;;;;;;;;;5007143;28;19932;-61
2021/10/17 10:37:19;;;;;;;;;;;;;;;;;;5007195;28;19926;-60
2021/10/17 10:39:46;;;;;;;;;;;;;;;;;;5009219;28;19925;-61
2021/10/17 10:42:13;;;;;;;;;;;;;;;;;;5008185;28;19933;-61
2021/10/17 10:44:41;;;;;;;;;;;;;;;;;;5008112;28;20441;-61
2021/10/17 10:47:08;;;;;;;;;;;;;;;;;;5007106;28;19932;-60
2021/10/17 10:49:35;;;;;;;;;;;;;;;;;;5007021;28;20274;-60
2021/10/17 10:52:02;;;;;;;;;;;;;;;;;;5006556;28;19925;-61
2021/10/17 10:54:29;;;;;;;;;;;;;;;;;;5003804;28;20390;-60
2021/10/17 10:56:56;;;;;;;;;;;;;;;;;;5007653;28;19926;-61
2021/10/17 10:59:25;;;;;;;;;;;;;;;;;;5007401;28;19979;-61
2021/10/17 11:01:51;;;;;;;;;;;;;;;;;;5010456;28;20293;-61
2021/10/17 11:04:18;;;;;;;;;;;;;;;;;;5008336;28;20001;-61
2021/10/17 11:06:45;;;;;;;;;;;;;;;;;;5008294;28;19937;-59
2021/10/17 11:09:12;;;;;;;;;;;;;;;;;;5005988;28;19946;-61
2021/10/17 11:11:39;;;;;;;;;;;;;;;;;;5009408;28;20370;-61
2021/10/17 11:14:06;;;;;;;;;;;;;;;;;;5007790;28;19971;-60
2021/10/17 11:16:33;;;;;;;;;;;;;;;;;;5010792;28;19940;-61
2021/10/17 11:19:00;;;;;;;;;;;;;;;;;;5007196;28;20325;-60
2021/10/17 11:21:27;;;;;;;;;;;;;;;;;;5009071;28;19936;-60
2021/10/17 11:23:54;;;;;;;;;;;;;;;;;;5005576;28;19926;-61
2021/10/17 11:26:21;;;;;;;;;;;;;;;;;;5010388;28;19956;-61
2021/10/17 11:28:48;;;;;;;;;;;;;;;;;;5005588;28;19933;-61
2021/10/17 11:31:15;;;;;;;;;;;;;;;;;;5004637;28;19936;-62
2021/10/17 11:33:42;;;;;;;;;;;;;;;;;;5005299;28;20460;-61
2021/10/17 11:36:09;;;;;;;;;;;;;;;;;;5008035;28;19972;-61
2021/10/17 11:38:36;;;;;;;;;;;;;;;;;;5004299;28;20393;-61
2021/10/17 11:41:03;;;;;;;;;;;;;;;;;;5005053;28;19929;-61
2021/10/17 11:43:30;;;;;;;;;;;;;;;;;;5004644;28;19934;-60
2021/10/17 11:45:57;;;;;;;;;;;;;;;;;;5007599;28;19933;-61
2021/10/17 11:48:24;;;;;;;;;;;;;;;;;;5006779;28;19926;-61
2021/10/17 11:50:51;;;;;;;;;;;;;;;;;;5003528;28;19940;-61
2021/10/17 11:53:18;;;;;;;;;;;;;;;;;;5004881;28;19926;-61
2021/10/17 11:55:44;;;;;;;;;;;;;;;;;;5007404;28;20285;-61
2021/10/17 11:58:11;;;;;;;;;;;;;;;;;;5003724;28;21300;-62
2021/10/17 12:00:38;;;;;;;;;;;;;;;;;;5008065;28;19933;-62
2021/10/17 12:03:05;;;;;;;;;;;;;;;;;;5007213;28;20000;-61
2021/10/17 12:05:32;;;;;;;;;;;;;;;;;;5005436;28;19926;-62
2021/10/17 12:07:59;;;;;;;;;;;;;;;;;;5007409;28;19926;-62
2021/10/17 12:10:27;;;;;;;;;;;;;;;;;;5007808;28;19933;-62
2021/10/17 12:12:54;;;;;;;;;;;;;;;;;;4996088;28;20008;-62
2021/10/17 12:15:21;;;;;;;;;;;;;;;;;;5006145;28;19931;-62
2021/10/17 12:17:48;;;;;;;;;;;;;;;;;;5009791;28;19925;-62
2021/10/17 12:20:15;;;;;;;;;;;;;;;;;;5007392;28;19933;-62
2021/10/17 12:22:42;;;;;;;;;;;;;;;;;;5003266;28;19925;-62
2021/10/17 12:25:09;;;;;;;;;;;;;;;;;;5007432;28;20420;-62
2021/10/17 12:27:36;;;;;;;;;;;;;;;;;;5009470;28;20301;-62
2021/10/17 12:30:03;;;;;;;;;;;;;;;;;;5005994;28;19948;-62
2021/10/17 12:32:30;;;;;;;;;;;;;;;;;;5011370;28;19925;-62
2021/10/17 12:34:57;;;;;;;;;;;;;;;;;;5011768;28;19932;-62
2021/10/17 12:37:24;;;;;;;;;;;;;;;;;;5014159;28;19925;-61
2021/10/17 12:39:51;;;;;;;;;;;;;;;;;;5013063;28;20315;-62
2021/10/17 12:42:18;;;;;;;;;;;;;;;;;;5009097;28;20385;-62
2021/10/17 12:44:45;;;;;;;;;;;;;;;;;;5013614;28;19929;-63
2021/10/17 12:47:12;;;;;;;;;;;;;;;;;;5013517;28;20267;-62
2021/10/17 12:49:39;;;;;;;;;;;;;;;;;;5012594;28;20316;-62
2021/10/17 12:52:08;;;;;;;;;;;;;;;;;;5010160;28;20291;-62
2021/10/17 12:54:35;;;;;;;;;;;;;;;;;;5012601;28;19925;-62
2021/10/17 12:57:02;;;;;;;;;;;;;;;;;;5011247;28;19925;-62
2021/10/17 12:59:29;;;;;;;;;;;;;;;;;;5011333;28;20408;-62
2021/10/17 13:01:56;;;;;;;;;;;;;;;;;;5009714;28;20309;-62
2021/10/17 13:04:23;;;;;;;;;;;;;;;;;;5014595;28;19925;-62
2021/10/17 13:06:50;;;;;;;;;;;;;;;;;;5011640;28;20385;-61
2021/10/17 13:09:17;;;;;;;;;;;;;;;;;;5013128;28;19932;-62
2021/10/17 13:11:44;;;;;;;;;;;;;;;;;;5011989;28;19925;-62
2021/10/17 13:14:11;;;;;;;;;;;;;;;;;;5011368;28;19933;-62
2021/10/17 13:16:38;;;;;;;;;;;;;;;;;;5013999;28;20100;-61
2021/10/17 13:19:05;;;;;;;;;;;;;;;;;;5015160;28;20371;-61
2021/10/17 13:21:32;;;;;;;;;;;;;;;;;;5014551;28;19930;-61
2021/10/17 13:23:59;;;;;;;;;;;;;;;;;;5013904;28;19929;-61
2021/10/17 13:26:26;;;;;;;;;;;;;;;;;;5011702;28;20378;-61
2021/10/17 13:28:53;;;;;;;;;;;;;;;;;;5019044;28;19925;-62
2021/10/17 13:31:20;;;;;;;;;;;;;;;;;;5013067;28;19925;-62
2021/10/17 13:33:47;;;;;;;;;;;;;;;;;;5016377;28;19925;-62
2021/10/17 13:36:14;;;;;;;;;;;;;;;;;;5013526;28;19926;-62
2021/10/17 13:38:40;;;;;;;;;;;;;;;;;;5012755;28;19926;-62
2021/10/17 13:41:07;;;;;;;;;;;;;;;;;;5012135;28;20011;-62
2021/10/17 13:43:34;;;;;;;;;;;;;;;;;;5011691;28;20198;-62
2021/10/17 13:46:01;;;;;;;;;;;;;;;;;;5013743;28;19948;-61
2021/10/17 13:48:28;;;;;;;;;;;;;;;;;;5013830;28;20425;-62
2021/10/17 13:50:55;;;;;;;;;;;;;;;;;;5012022;28;21029;-61
2021/10/17 13:53:22;;;;;;;;;;;;;;;;;;5014146;28;20012;-62
2021/10/17 13:55:49;;;;;;;;;;;;;;;;;;5011668;28;20036;-61
2021/10/17 13:58:16;;;;;;;;;;;;;;;;;;5013494;28;20293;-62
2021/10/17 14:00:43;;;;;;;;;;;;;;;;;;5012091;28;19932;-62
2021/10/17 14:03:10;;;;;;;;;;;;;;;;;;5010980;28;19933;-61
2021/10/17 14:05:37;;;;;;;;;;;;;;;;;;5012767;28;20373;-61
2021/10/17 14:08:04;;;;;;;;;;;;;;;;;;5010325;28;19949;-61
2021/10/17 14:10:31;;;;;;;;;;;;;;;;;;5011995;28;19952;-61
2021/10/17 14:12:58;;;;;;;;;;;;;;;;;;5012345;28;20388;-61
2021/10/17 14:15:25;;;;;;;;;;;;;;;;;;5009000;28;19925;-61
2021/10/17 14:17:52;;;;;;;;;;;;;;;;;;5013164;28;20012;-60
2021/10/17 14:20:19;;;;;;;;;;;;;;;;;;5012987;28;20012;-61
2021/10/17 14:22:46;;;;;;;;;;;;;;;;;;5013799;28;20019;-59
2021/10/17 14:25:16;;;;;;;;;;;;;;;;;;5013514;28;19931;-61
2021/10/17 14:27:43;;;;;;;;;;;;;;;;;;5011934;28;20412;-62
2021/10/17 14:30:10;;;;;;;;;;;;;;;;;;5013124;28;19935;-62
2021/10/17 14:32:37;;;;;;;;;;;;;;;;;;5012091;28;20414;-62
2021/10/17 14:35:04;;;;;;;;;;;;;;;;;;5012793;28;19925;-62
2021/10/17 14:37:31;;;;;;;;;;;;;;;;;;5011196;28;19926;-62
2021/10/17 14:39:58;;;;;;;;;;;;;;;;;;5011277;28;20333;-62
2021/10/17 14:42:25;;;;;;;;;;;;;;;;;;5011410;28;19925;-60
2021/10/17 14:44:52;;;;;;;;;;;;;;;;;;5013758;28;20016;-60
2021/10/17 14:47:19;;;;;;;;;;;;;;;;;;5011636;28;20205;-61
2021/10/17 14:49:45;;;;;;;;;;;;;;;;;;5010189;28;20289;-61
2021/10/17 14:52:12;;;;;;;;;;;;;;;;;;5011690;28;19926;-61
2021/10/17 14:54:39;;;;;;;;;;;;;;;;;;5013520;28;19925;-61
2021/10/17 14:57:06;;;;;;;;;;;;;;;;;;5011826;28;19936;-61
2021/10/17 14:59:33;;;;;;;;;;;;;;;;;;5012206;28;19926;-61
2021/10/17 15:02:01;;;;;;;;;;;;;;;;;;5009080;28;19931;-60
2021/10/17 15:04:29;;;;;;;;;;;;;;;;;;5006819;28;19925;-63
2021/10/17 15:06:59;;;;;;;;;;;;;;;;;;5005021;28;19926;-61
2021/10/17 15:09:26;;;;;;;;;;;;;;;;;;5002285;28;20413;-61
2021/10/17 15:11:52;;;;;;;;;;;;;;;;;;5008448;28;19932;-60
2021/10/17 15:14:19;;;;;;;;;;;;;;;;;;5010135;28;19931;-60
2021/10/17 15:16:46;;;;;;;;;;;;;;;;;;5009801;28;19925;-64
2021/10/17 15:19:13;;;;;;;;;;;;;;;;;;5004913;28;21523;-61
2021/10/17 15:21:40;;;;;;;;;;;;;;;;;;5007505;28;20394;-61
2021/10/17 15:24:07;;;;;;;;;;;;;;;;;;5006047;28;19929;-58
2021/10/17 15:26:38;;;;;;;;;;;;;;;;;;5002947;28;19936;-61
2021/10/17 15:29:05;;;;;;;;;;;;;;;;;;5009207;28;20011;-61
2021/10/17 15:31:32;;;;;;;;;;;;;;;;;;5005757;28;19929;-61
2021/10/17 15:33:59;;;;;;;;;;;;;;;;;;5007791;28;19932;-61
2021/10/17 15:36:26;;;;;;;;;;;;;;;;;;5005905;28;20291;-59
2021/10/17 15:38:53;;;;;;;;;;;;;;;;;;5005645;28;19930;-61
2021/10/17 15:41:20;;;;;;;;;;;;;;;;;;5006269;28;19925;-61
2021/10/17 15:43:49;;;;;;;;;;;;;;;;;;5028406;22;20391;-57
2021/10/17 15:46:16;;;;;;;;;;;;;;;;;;5028369;28;20449;-57
2021/10/17 15:48:43;;;;;;;;;;;;;;;;;;5024249;28;19925;-59
2021/10/17 15:51:10;;;;;;;;;;;;;;;;;;5023672;28;20125;-58
2021/10/17 15:53:37;;;;;;;;;;;;;;;;;;5025868;28;19931;-59
2021/10/17 15:56:04;;;;;;;;;;;;;;;;;;5026529;28;19959;-59
2021/10/17 15:58:31;;;;;;;;;;;;;;;;;;5025443;28;20385;-59
2021/10/17 16:00:58;;;;;;;;;;;;;;;;;;5026240;28;19926;-58
2021/10/17 16:03:25;;;;;;;;;;;;;;;;;;5027650;28;19935;-60
2021/10/17 16:05:52;;;;;;;;;;;;;;;;;;5027194;28;19940;-59
2021/10/17 16:08:19;;;;;;;;;;;;;;;;;;5026350;28;20381;-60
2021/10/17 16:10:46;;;;;;;;;;;;;;;;;;5030018;28;19956;-59
2021/10/17 16:13:13;;;;;;;;;;;;;;;;;;5028009;28;20670;-60
2021/10/17 16:15:40;;;;;;;;;;;;;;;;;;5029467;28;19925;-59
2021/10/17 16:18:07;;;;;;;;;;;;;;;;;;5027288;28;19932;-60
2021/10/17 16:20:34;;;;;;;;;;;;;;;;;;5026471;28;20024;-59
2021/10/17 16:23:01;;;;;;;;;;;;;;;;;;5027414;28;19944;-58
2021/10/17 16:25:30;;;;;;;;;;;;;;;;;;5029340;28;19925;-58
2021/10/17 16:27:57;;;;;;;;;;;;;;;;;;5027776;28;19930;-54
2021/10/17 16:30:24;;;;;;;;;;;;;;;;;;5028714;28;19979;-60
2021/10/17 16:32:56;;;;;;;;;;;;;;;;;;5027509;28;19932;-57
2021/10/17 16:35:23;;;;;;;;;;;;;;;;;;5029407;28;19925;-59
2021/10/17 16:37:50;;;;;;;;;;;;;;;;;;5031760;28;19925;-59
2021/10/17 16:40:17;;;;;;;;;;;;;;;;;;5030360;28;19932;-60
2021/10/17 16:42:44;;;;;;;;;;;;;;;;;;5026386;28;20297;-59